Logan, NM (88426)

10:47 PM MST on February 10, 2016 (GMT -0700)
Tucumcari Municipal | | Change Station
CLOSE
Current Station
Airport
Location: Tucumcari,
Elevation: 4065 ft
Nearby Weather Stations

Elev 4065 ft 35.18 °N, 103.60 °W | Updated 54 minutes ago

Clear
Clear
46 °F
Feels Like 40 °F
N
13
Wind Variable Wind from West

Today
High -- | Low -- °F
--% Chance of Precip.
Yesterday
High -- | Low -- °F
Precip. -- in
Pressure 30.08 in
Visibility 10.0 miles
Clouds Clear
Windchill 40 °F
Dew Point 18 °F
Humidity 33%
Rainfall 0.00 in
Snow Depth Not available.
6:45 AM 5:30 PM
Waxing Crescent, 9% visible
METAR KTCC 110453Z AUTO 28011KT 10SM CLR 08/M08 A3008 RMK AO2 SLPNO T00781078
Pressure 30.08 in
Visibility 10.0 miles
Clouds Clear
Windchill 40 °F
Dew Point 18 °F
Humidity 33%
Rainfall 0.00 in
Snow Depth Not available.
6:45 AM 5:30 PM
Waxing Crescent, 9% visible
METAR KTCC 110453Z AUTO 28011KT 10SM CLR 08/M08 A3008 RMK AO2 SLPNO T00781078

10-Day Weather Forecast

Almanac

Astronomy

Feb. 10, 2016 Rise Set
Actual Time
Civil Twilight
Nautical Twilight
Astronomical Twilight
Moon
Length of Visible Light
Length of Day
Tomorrow will be .
, % of the Moon is Illuminated

Today's Extremes

State Highs State Lows

Community

WunderPhotos

Upload Photos

1,892,023 photos uploaded!

WunderBlog® & News

Nearby

Air Quality

  Air Quality AQ Index Pollutant
Not available.

Snow Depth

Station Depth Elevation

Earthquake Activity

City Distance Mag. Time & Date
Minimum magnitude displayed is 2.5.

Coastal Water Temperatures

Place Temperature

Stations

Nearby Weather Stations

Station Location Temp. Windchill Dew Point Humidity Wind Precip. Elev Updated Type
                   

Watches & Warnings

There are currently no watches in effect.